Impacts METAR Board
IDs:

KJFK - New York/Kennedy Int, NY, US

Updated at: 0700 UTC 07 Dec 2022
Potential Impact None Slight Moderate High
Time 06/19Z 06/20Z 06/21Z 06/22Z 06/23Z 07/00Z 07/01Z 07/02Z 07/03Z 07/04Z 07/05Z 07/06Z 07/07Z
Temp56 56 56 56 56 56 56 56 56 56 56 56 56
Dewpt52 52 52 52 53 53 53 54 55 54 55 55 55
Altim30.28 30.28 30.28 30.29 30.29 30.29 30.28 30.27 30.26 30.26 30.24 30.22 30.23
VIS6 7 8 8 7 8 6 6 4 5 4 4 5
CIG50 60 50 48 37 34 33 31 21 16 16 6 6
CoverOVCOVCOVCOVCOVCOVCOVCOVCOVCOVCOVCOVCOVC
FltCatVFRVFRVFRVFRVFRVFRVFRVFRMVFRMVFRMVFRIFRIFR
WXRA BR-------RA-RA-RA BRRA BR-RA BRRA BR+RA BR-RA BR-RA BR
WDir130130130140150140130120120140160160180
WSpd13 12 13 15 9 13 8 11 10 14 17 16 13
WGst20 -- -- -- -- -- -- -- -- -- -- -- --
Raw hourly METARs
KJFK 061851Z 13013G20KT 6SM RA BR FEW017 SCT036 OVC050 13/11 A3028 RMK AO2 SLP254 P0000 T01330111
KJFK 061951Z 13012KT 7SM FEW017 OVC060 13/11 A3028 RMK AO2 RAE27 SLP254 P0003 T01330111
KJFK 062051Z 13013KT 8SM FEW034 OVC050 13/11 A3028 RMK AO2 RAB19E33 SLP253 P0000 60003 T01330111 56006
KJFK 062151Z 14015KT 8SM SCT030 OVC048 13/11 A3029 RMK AO2 SLP256 T01330111
KJFK 062251Z 15009KT 7SM -RA BKN037 OVC055 13/12 A3029 RMK AO2 RAB15 SLP257 P0004 T01330117
KJFK 062351Z 14013KT 8SM -RA OVC034 13/12 A3029 RMK AO2 SLP256 P0000 60007 T01330117 10139 20133 50003
KJFK 070051Z 13008KT 6SM -RA BR FEW027 OVC033 13/12 A3028 RMK AO2 SLP254 P0002 T01330117
KJFK 070151Z 12011KT 6SM RA BR OVC031 13/12 A3027 RMK AO2 SLP251 P0005 T01330122
KJFK 070251Z 12010KT 4SM -RA BR FEW006 OVC021 13/13 A3026 RMK AO2 SLP248 P0011 60018 T01330128 58008
KJFK 070351Z 14014KT 5SM RA BR FEW007 OVC016 13/12 A3026 RMK AO2 SLP245 P0005 T01330122
KJFK 070451Z 16017KT 4SM +RA BR SCT006 OVC016 13/13 A3024 RMK AO2 SLP238 P0010 T01330128 401390022
KJFK 070551Z 16016KT 4SM -RA BR BKN006 OVC015 13/13 A3022 RMK AO2 SLP234 P0016 60049 T01330128 10139 20133 58013
KJFK 070651Z 18013KT 5SM -RA BR BKN006 OVC022 13/13 A3023 RMK AO2 SLP236 P0012 T01330128



Page loaded:  07:49 UTC  |   11:49 PM Pacific  |   12:49 AM Mountain  |   01:49 AM Central  |   02:49 AM Eastern

 

ADVISORIES

FORECASTS

FORECASTS

OBSERVATIONS

USER TOOLS

ABOUT US